createdAt,value
2022-08-03T00:00:54.106Z,66.46
2022-08-03T00:01:54.101Z,66.26
2022-08-03T00:02:54.342Z,66.36
2022-08-03T00:03:54.065Z,66.16
2022-08-03T00:04:54.089Z,66.26
2022-08-03T00:06:04.763Z,66.26
2022-08-03T00:06:55.033Z,66.46
2022-08-03T00:07:54.045Z,66.36
2022-08-03T00:08:54.101Z,66.46
2022-08-03T00:09:54.039Z,66.26
2022-08-03T00:10:54.033Z,66.46
2022-08-03T00:11:54.028Z,66.26
2022-08-03T00:12:54.008Z,66.56
2022-08-03T00:13:53.976Z,66.66
2022-08-03T00:14:54.016Z,66.89
2022-08-03T00:15:53.977Z,66.79
2022-08-03T00:16:53.985Z,66.99
2022-08-03T00:17:54.207Z,66.99
2022-08-03T00:18:54.015Z,66.99
2022-08-03T00:19:54.032Z,67.19
2022-08-03T00:20:54.043Z,66.99
2022-08-03T00:21:54.045Z,66.99
2022-08-03T00:22:54.042Z,67.09
2022-08-03T00:23:54.033Z,66.89
2022-08-03T00:24:54.053Z,66.99
2022-08-03T00:25:54.058Z,67.19
2022-08-03T00:26:54.048Z,67.09
2022-08-03T00:27:54.041Z,67.19
2022-08-03T00:28:54.095Z,67.22
2022-08-03T00:29:59.958Z,67.02
2022-08-03T00:30:54.729Z,67.43
2022-08-03T00:32:00.349Z,67.32
2022-08-03T00:32:54.736Z,67.32
2022-08-03T00:33:59.615Z,67.72
2022-08-03T00:34:57.927Z,67.63
2022-08-03T00:35:53.743Z,67.63
2022-08-03T00:36:53.678Z,67.52
2022-08-03T00:37:53.713Z,67.13
2022-08-03T00:38:53.699Z,67.02
2022-08-03T00:39:53.745Z,67.32
2022-08-03T00:40:54.810Z,67.32
2022-08-03T00:41:53.802Z,67.22
2022-08-03T00:42:53.843Z,67.43
2022-08-03T00:43:53.814Z,67.32
2022-08-03T00:44:53.582Z,67.02
2022-08-03T00:45:53.584Z,67.32
2022-08-03T00:46:53.612Z,67.63
2022-08-03T00:47:53.569Z,67.63
2022-08-03T00:48:53.591Z,67.32
2022-08-03T00:49:53.532Z,67.52
2022-08-03T00:50:54.099Z,67.43
2022-08-03T00:51:53.485Z,67.22
2022-08-03T00:52:53.496Z,67.46
2022-08-03T00:53:53.474Z,67.46
2022-08-03T00:54:53.492Z,67.36
2022-08-03T00:55:53.467Z,67.36
2022-08-03T00:56:59.521Z,67.25
2022-08-03T00:57:54.479Z,67.13
2022-08-03T00:58:53.455Z,67.02
2022-08-03T00:59:53.468Z,66.93
2022-08-03T01:00:53.512Z,67.02
2022-08-03T01:01:53.481Z,67.02
2022-08-03T01:02:53.491Z,66.93
2022-08-03T01:03:53.526Z,67.13
2022-08-03T01:04:53.507Z,67.52
2022-08-03T01:05:53.302Z,67.72
2022-08-03T01:06:53.329Z,67.63
2022-08-03T01:07:53.330Z,67.72
2022-08-03T01:08:53.329Z,67.72
2022-08-03T01:09:53.489Z,67.82
2022-08-03T01:10:53.353Z,67.82
2022-08-03T01:11:59.899Z,67.25
2022-08-03T01:12:54.188Z,67.76
2022-08-03T01:14:01.202Z,68.05
2022-08-03T01:14:54.198Z,68.05
2022-08-03T01:15:53.198Z,68.05
2022-08-03T01:16:53.191Z,68.36
2022-08-03T01:17:53.180Z,68.46
2022-08-03T01:18:53.194Z,68.66
2022-08-03T01:19:53.191Z,68.55
2022-08-03T01:20:53.257Z,68.76
2022-08-03T01:21:53.239Z,68.66
2022-08-03T01:22:53.084Z,68.29
2022-08-03T01:23:53.106Z,68.19
2022-08-03T01:24:53.080Z,68.79
2022-08-03T01:25:54.357Z,68.79
2022-08-03T01:26:53.098Z,68.89
2022-08-03T01:27:54.963Z,69.09
2022-08-03T01:28:53.082Z,69.09
2022-08-03T01:29:52.989Z,69.39
2022-08-03T01:30:53.021Z,69.29
2022-08-03T01:32:58.964Z,69.39
2022-08-03T01:33:01.413Z,69.49
2022-08-03T01:33:53.916Z,69.49
2022-08-03T01:34:52.931Z,69.53
2022-08-03T01:35:52.939Z,69.82
2022-08-03T01:36:52.893Z,69.73
2022-08-03T01:37:52.913Z,69.82
2022-08-03T01:38:52.963Z,69.93
2022-08-03T01:39:52.969Z,70.03
2022-08-03T01:40:52.975Z,70.23
2022-08-03T01:41:52.847Z,70.46
2022-08-03T01:42:52.886Z,70.66
2022-08-03T01:44:27.918Z,70.86
2022-08-03T01:44:54.025Z,71.06
2022-08-03T01:45:53.014Z,71.36
2022-08-03T01:46:53.043Z,71.59
2022-08-03T01:47:53.086Z,71.80
2022-08-03T01:48:53.146Z,71.90
2022-08-03T01:49:52.725Z,72.09
2022-08-03T01:50:52.795Z,72.20
2022-08-03T01:52:02.913Z,72.40
2022-08-03T01:52:53.650Z,72.43
2022-08-03T01:53:52.705Z,72.83
2022-08-03T01:54:52.747Z,73.03
2022-08-03T01:55:52.766Z,73.24
2022-08-03T01:56:52.965Z,73.44
2022-08-03T01:58:05.163Z,73.97
2022-08-03T01:58:53.844Z,73.97
2022-08-03T01:59:52.866Z,74.07
2022-08-03T02:00:52.952Z,74.07
2022-08-03T02:02:27.910Z,74.37
2022-08-03T02:02:53.997Z,74.41
2022-08-03T02:04:00.645Z,74.61
2022-08-03T02:04:53.498Z,75.11
2022-08-03T02:06:11.470Z,75.31
2022-08-03T02:07:01.100Z,75.42
2022-08-03T02:07:53.565Z,75.42
2022-08-03T02:08:52.602Z,75.42
2022-08-03T02:09:52.587Z,75.51
2022-08-03T02:10:52.599Z,75.42
2022-08-03T02:11:52.610Z,75.25
2022-08-03T02:12:52.621Z,75.25
2022-08-03T02:13:52.650Z,75.45
2022-08-03T02:14:52.680Z,75.25
2022-08-03T02:15:52.721Z,75.65
2022-08-03T02:16:52.761Z,75.75
2022-08-03T02:17:52.789Z,75.75
2022-08-03T02:18:52.341Z,75.75
2022-08-03T02:19:52.365Z,75.25
2022-08-03T02:20:52.336Z,75.55
2022-08-03T02:21:57.356Z,75.55
2022-08-03T02:22:53.367Z,75.35
2022-08-03T02:23:52.353Z,75.25
2022-08-03T02:24:52.373Z,75.15
2022-08-03T02:25:52.379Z,75.11
2022-08-03T02:26:52.405Z,75.01
2022-08-03T02:27:52.443Z,74.81
2022-08-03T02:28:52.484Z,74.71
2022-08-03T02:29:52.517Z,74.61
2022-08-03T02:30:54.040Z,74.61
2022-08-03T02:31:52.245Z,74.51
2022-08-03T02:32:52.242Z,74.51
2022-08-03T02:33:52.273Z,74.51
2022-08-03T02:34:52.325Z,74.61
2022-08-03T02:35:52.352Z,74.61
2022-08-03T02:36:52.114Z,74.41
2022-08-03T02:37:52.155Z,74.31
2022-08-03T02:38:52.183Z,74.31
2022-08-03T02:39:52.204Z,74.41
2022-08-03T02:40:52.226Z,74.41
2022-08-03T02:41:52.273Z,74.41
2022-08-03T02:42:52.248Z,74.41
2022-08-03T02:44:06.424Z,74.41
2022-08-03T02:44:53.264Z,74.51
2022-08-03T02:45:52.277Z,74.71
2022-08-03T02:46:52.308Z,74.81
2022-08-03T02:47:54.306Z,74.65
2022-08-03T02:48:52.395Z,74.95
2022-08-03T02:49:52.790Z,75.15
2022-08-03T02:50:52.335Z,75.35
2022-08-03T02:51:52.351Z,75.35
2022-08-03T02:52:52.388Z,75.35
2022-08-03T02:53:52.376Z,75.45
2022-08-03T02:54:52.440Z,75.68
2022-08-03T02:55:52.474Z,75.68
2022-08-03T02:56:52.508Z,75.89
2022-08-03T02:57:52.546Z,75.89
2022-08-03T02:58:52.586Z,75.99
2022-08-03T02:59:53.586Z,76.09
2022-08-03T03:00:52.719Z,76.29
2022-08-03T03:01:52.699Z,76.53
2022-08-03T03:02:51.692Z,76.63
2022-08-03T03:03:51.768Z,76.73
2022-08-03T03:05:55.414Z,77.13
2022-08-03T03:05:57.656Z,77.23
2022-08-03T03:06:52.812Z,77.43
2022-08-03T03:07:53.150Z,77.63
2022-08-03T03:08:54.561Z,77.53
2022-08-03T03:09:51.940Z,77.67
2022-08-03T03:10:53.221Z,77.57
2022-08-03T03:11:52.020Z,77.77
2022-08-03T03:12:52.041Z,77.97
2022-08-03T03:13:52.044Z,78.17
2022-08-03T03:14:52.051Z,78.38
2022-08-03T03:15:52.071Z,78.47
2022-08-03T03:16:52.086Z,78.27
2022-08-03T03:17:53.120Z,78.38
2022-08-03T03:18:52.150Z,78.38
2022-08-03T03:19:52.186Z,78.47
2022-08-03T03:20:52.220Z,78.67
2022-08-03T03:21:52.269Z,78.78
2022-08-03T03:22:52.283Z,78.71
2022-08-03T03:23:52.322Z,78.91
2022-08-03T03:24:52.372Z,79.25
2022-08-03T03:25:52.368Z,79.36
2022-08-03T03:26:51.366Z,79.56
2022-08-03T03:27:51.383Z,79.66
2022-08-03T03:28:51.402Z,79.66
2022-08-03T03:29:51.455Z,79.56
2022-08-03T03:30:53.040Z,79.46
2022-08-03T03:31:51.518Z,79.46
2022-08-03T03:32:52.685Z,79.36
2022-08-03T03:33:51.584Z,79.25
2022-08-03T03:34:51.612Z,79.36
2022-08-03T03:35:51.697Z,79.36
2022-08-03T03:36:51.677Z,79.36
2022-08-03T03:37:51.698Z,79.46
2022-08-03T03:38:51.767Z,79.46
2022-08-03T03:39:51.786Z,79.46
2022-08-03T03:40:51.827Z,79.46
2022-08-03T03:41:51.858Z,79.46
2022-08-03T03:42:51.923Z,79.66
2022-08-03T03:43:51.917Z,79.76
2022-08-03T03:44:51.937Z,79.76
2022-08-03T03:45:51.957Z,79.66
2022-08-03T03:46:52.007Z,79.56
2022-08-03T03:47:52.036Z,79.25
2022-08-03T03:48:52.078Z,79.25
2022-08-03T03:49:51.047Z,79.46
2022-08-03T03:50:51.068Z,79.22
2022-08-03T03:51:51.242Z,79.02
2022-08-03T03:52:51.118Z,78.81
2022-08-03T03:53:51.157Z,78.81
2022-08-03T03:54:51.187Z,78.61
2022-08-03T03:55:57.744Z,78.61
2022-08-03T03:56:52.260Z,78.71
2022-08-03T03:57:51.267Z,78.61
2022-08-03T03:58:51.317Z,78.51
2022-08-03T03:59:51.342Z,78.51
2022-08-03T04:00:51.414Z,78.61
2022-08-03T04:01:58.864Z,78.61
2022-08-03T04:02:52.619Z,78.81
2022-08-03T04:03:51.461Z,78.71
2022-08-03T04:04:51.483Z,78.61
2022-08-03T04:05:51.533Z,78.61
2022-08-03T04:06:53.030Z,78.61
2022-08-03T04:07:51.592Z,78.61
2022-08-03T04:08:51.630Z,78.71
2022-08-03T04:09:51.633Z,78.91
2022-08-03T04:10:51.639Z,78.91
2022-08-03T04:11:51.670Z,79.02
2022-08-03T04:12:52.730Z,79.02
2022-08-03T04:13:51.751Z,79.36
2022-08-03T04:14:50.763Z,79.46
2022-08-03T04:15:50.775Z,79.56
2022-08-03T04:16:50.821Z,79.76
2022-08-03T04:17:50.871Z,79.86
2022-08-03T04:18:50.901Z,79.86
2022-08-03T04:19:51.212Z,79.86
2022-08-03T04:20:50.975Z,79.96
2022-08-03T04:21:51.022Z,79.96
2022-08-03T04:22:51.079Z,80.16
2022-08-03T04:23:51.124Z,80.26
2022-08-03T04:24:51.142Z,80.16
2022-08-03T04:25:51.232Z,80.26
2022-08-03T04:26:52.899Z,80.06
2022-08-03T04:28:29.182Z,80.06
2022-08-03T04:28:52.297Z,80.16
2022-08-03T04:29:51.557Z,80.06
2022-08-03T04:30:51.406Z,80.16
2022-08-03T04:31:51.438Z,80.26
2022-08-03T04:32:51.474Z,80.36
2022-08-03T04:33:50.490Z,80.46
2022-08-03T04:34:50.515Z,80.46
2022-08-03T04:36:01.712Z,80.57
2022-08-03T04:36:51.584Z,80.57
2022-08-03T04:37:50.607Z,80.87
2022-08-03T04:38:50.656Z,80.87
2022-08-03T04:39:50.713Z,80.77
2022-08-03T04:40:50.756Z,80.77
2022-08-03T04:42:07.594Z,80.77
2022-08-03T04:42:51.875Z,81.01
2022-08-03T04:43:50.929Z,80.87
2022-08-03T04:44:50.994Z,80.87
2022-08-03T04:45:51.975Z,81.07
2022-08-03T04:46:52.790Z,80.97
2022-08-03T04:47:51.090Z,80.97
2022-08-03T04:48:51.136Z,81.27
2022-08-03T04:49:51.175Z,80.97
2022-08-03T04:50:51.207Z,81.17
2022-08-03T04:51:50.232Z,81.57
2022-08-03T04:52:50.324Z,80.97
2022-08-03T04:53:50.314Z,80.77
2022-08-03T04:54:51.119Z,80.46
2022-08-03T04:55:50.409Z,80.46
2022-08-03T04:56:50.453Z,80.46
2022-08-03T04:57:50.497Z,80.36
2022-08-03T04:58:50.532Z,80.36
2022-08-03T04:59:50.568Z,80.36
2022-08-03T05:00:50.609Z,80.22
2022-08-03T05:01:50.692Z,80.32
2022-08-03T05:02:50.717Z,80.22
2022-08-03T05:03:50.737Z,80.12
2022-08-03T05:04:50.770Z,80.22
2022-08-03T05:05:50.989Z,80.32
2022-08-03T05:06:51.017Z,80.32
2022-08-03T05:07:51.013Z,80.43
2022-08-03T05:08:50.959Z,80.46
2022-08-03T05:09:57.502Z,80.36
2022-08-03T05:10:50.981Z,80.43
2022-08-03T05:11:50.012Z,80.32
2022-08-03T05:12:50.052Z,80.46
2022-08-03T05:13:50.098Z,80.52
2022-08-03T05:14:50.123Z,80.32
2022-08-03T05:15:50.173Z,80.52
2022-08-03T05:16:50.212Z,80.32
2022-08-03T05:17:50.280Z,80.02
2022-08-03T05:18:50.324Z,79.92
2022-08-03T05:19:50.357Z,79.92
2022-08-03T05:20:50.571Z,79.92
2022-08-03T05:21:52.799Z,79.82
2022-08-03T05:22:50.450Z,79.68
2022-08-03T05:23:50.476Z,79.68
2022-08-03T05:24:50.489Z,79.79
2022-08-03T05:25:50.516Z,79.79
2022-08-03T05:26:50.564Z,79.79
2022-08-03T05:27:50.924Z,79.68
2022-08-03T05:28:51.548Z,79.58
2022-08-03T05:29:50.691Z,79.68
2022-08-03T05:30:50.714Z,79.58
2022-08-03T05:31:49.726Z,79.58
2022-08-03T05:32:49.750Z,79.58
2022-08-03T05:33:49.785Z,79.58
2022-08-03T05:34:49.838Z,79.64
2022-08-03T05:35:55.882Z,79.54
2022-08-03T05:36:50.867Z,79.54
2022-08-03T05:37:54.864Z,79.35
2022-08-03T05:38:50.916Z,79.24
2022-08-03T05:39:49.961Z,79.35
2022-08-03T05:40:57.503Z,79.14
2022-08-03T05:41:51.023Z,79.24
2022-08-03T05:42:50.050Z,79.04
2022-08-03T05:43:50.083Z,79.00
2022-08-03T05:44:50.125Z,79.00
2022-08-03T05:46:11.629Z,78.90
2022-08-03T05:46:51.189Z,78.80
2022-08-03T05:47:50.159Z,78.80
2022-08-03T05:48:50.178Z,78.60
2022-08-03T05:49:50.200Z,78.70
2022-08-03T05:50:50.229Z,78.60
2022-08-03T05:52:00.071Z,78.36
2022-08-03T05:52:51.269Z,78.36
2022-08-03T05:53:50.282Z,78.27
2022-08-03T05:54:56.293Z,78.06
2022-08-03T05:55:55.364Z,77.86
2022-08-03T05:56:51.351Z,78.06
2022-08-03T05:57:50.366Z,77.92
2022-08-03T05:58:49.358Z,77.83
2022-08-03T05:59:53.839Z,77.72
2022-08-03T06:00:50.453Z,77.52
2022-08-03T06:01:49.560Z,77.22
2022-08-03T06:02:49.520Z,77.22
2022-08-03T06:03:49.603Z,77.22
2022-08-03T06:04:49.603Z,76.98
2022-08-03T06:05:54.947Z,76.78
2022-08-03T06:06:50.867Z,76.98
2022-08-03T06:07:49.735Z,76.68
2022-08-03T06:08:49.761Z,76.58
2022-08-03T06:10:33.970Z,76.48
2022-08-03T06:10:50.852Z,76.34
2022-08-03T06:11:49.883Z,76.25
2022-08-03T06:12:49.962Z,76.25
2022-08-03T06:13:49.974Z,76.25
2022-08-03T06:14:50.005Z,76.15
2022-08-03T06:15:50.033Z,75.95
2022-08-03T06:16:50.066Z,75.71
2022-08-03T06:17:50.101Z,75.81
2022-08-03T06:18:49.095Z,75.60
2022-08-03T06:19:49.111Z,75.51
2022-08-03T06:20:49.623Z,75.51
2022-08-03T06:21:49.157Z,75.37
2022-08-03T06:22:51.384Z,75.37
2022-08-03T06:23:54.335Z,75.17
2022-08-03T06:24:53.802Z,75.27
2022-08-03T06:25:49.245Z,74.87
2022-08-03T06:26:49.405Z,74.73
2022-08-03T06:27:49.289Z,74.54
2022-08-03T06:28:52.235Z,74.54
2022-08-03T06:29:49.393Z,74.33
2022-08-03T06:30:50.322Z,74.43
2022-08-03T06:31:49.420Z,74.73
2022-08-03T06:32:51.769Z,74.20
2022-08-03T06:34:33.749Z,74.10
2022-08-03T06:34:50.517Z,74.00
2022-08-03T06:35:49.476Z,74.10
2022-08-03T06:36:49.479Z,74.20
2022-08-03T06:37:50.443Z,73.80
2022-08-03T06:38:49.533Z,73.80
2022-08-03T06:39:49.585Z,73.66
2022-08-03T06:40:49.653Z,73.66
2022-08-03T06:41:49.644Z,73.66
2022-08-03T06:42:49.667Z,73.46
2022-08-03T06:44:03.856Z,73.16
2022-08-03T06:44:49.715Z,72.96
2022-08-03T06:45:48.732Z,73.03
2022-08-03T06:46:48.785Z,72.83
2022-08-03T06:47:48.763Z,72.72
2022-08-03T06:48:48.759Z,72.53
2022-08-03T06:50:12.883Z,72.53
2022-08-03T06:50:49.797Z,72.63
2022-08-03T06:52:05.890Z,72.29
2022-08-03T06:52:49.844Z,72.09
2022-08-03T06:53:48.831Z,71.89
2022-08-03T06:54:48.858Z,71.69
2022-08-03T06:55:53.913Z,71.69
2022-08-03T06:56:49.903Z,71.46
2022-08-03T06:57:48.886Z,71.26
2022-08-03T06:58:48.896Z,71.16
2022-08-03T07:00:06.427Z,71.06
2022-08-03T07:00:49.923Z,70.83
2022-08-03T07:01:49.018Z,70.92
2022-08-03T07:02:48.992Z,71.12
2022-08-03T07:03:52.273Z,70.92
2022-08-03T07:04:49.063Z,70.83
2022-08-03T07:05:49.039Z,71.03
2022-08-03T07:06:49.006Z,70.59
2022-08-03T07:07:49.013Z,70.59
2022-08-03T07:08:52.307Z,69.99
2022-08-03T07:09:56.719Z,70.19
2022-08-03T07:10:50.047Z,70.19
2022-08-03T07:11:49.053Z,70.06
2022-08-03T07:12:56.125Z,69.66
2022-08-03T07:13:50.062Z,69.36
2022-08-03T07:14:49.069Z,69.26
2022-08-03T07:15:55.571Z,68.86
2022-08-03T07:16:50.069Z,69.02
2022-08-03T07:17:49.076Z,68.93
2022-08-03T07:18:49.081Z,68.33
2022-08-03T07:19:49.085Z,68.33
2022-08-03T07:20:49.120Z,69.09
2022-08-03T07:21:49.174Z,68.19
2022-08-03T07:22:49.138Z,67.20
2022-08-03T07:23:49.132Z,67.30
2022-08-03T07:24:49.127Z,67.07
2022-08-03T07:25:49.151Z,65.77
2022-08-03T07:26:49.151Z,66.17
2022-08-03T07:27:51.789Z,64.94
2022-08-03T07:28:49.192Z,65.34
2022-08-03T07:29:48.161Z,65.24
2022-08-03T07:30:49.270Z,65.14
2022-08-03T07:31:48.198Z,65.74
2022-08-03T07:32:50.436Z,66.41
2022-08-03T07:33:48.319Z,66.71
2022-08-03T07:34:48.206Z,66.71
2022-08-03T07:35:48.229Z,64.72
2022-08-03T07:36:48.200Z,65.31
2022-08-03T07:37:54.918Z,64.78
2022-08-03T07:38:49.217Z,65.18
2022-08-03T07:39:48.235Z,65.28
2022-08-03T07:40:48.205Z,63.69
2022-08-03T07:41:48.203Z,64.65
2022-08-03T07:42:48.233Z,63.76
2022-08-03T07:43:48.276Z,63.46
2022-08-03T07:44:48.223Z,63.66
2022-08-03T07:45:48.221Z,65.15
2022-08-03T07:46:48.302Z,64.85
2022-08-03T07:47:53.744Z,63.33
2022-08-03T07:48:49.283Z,63.13
2022-08-03T07:49:48.253Z,62.43
2022-08-03T07:50:48.257Z,63.03
2022-08-03T07:51:48.249Z,63.23
2022-08-03T07:52:48.256Z,63.03
2022-08-03T07:53:48.256Z,64.00
2022-08-03T07:54:48.247Z,63.89
2022-08-03T07:55:48.288Z,64.00
2022-08-03T07:56:48.257Z,64.19
2022-08-03T07:57:48.320Z,63.60
2022-08-03T07:58:48.263Z,62.21
2022-08-03T07:59:57.205Z,64.06
2022-08-03T08:00:49.360Z,62.77
2022-08-03T08:01:48.362Z,61.88
2022-08-03T08:02:48.257Z,61.15
2022-08-03T08:03:52.660Z,60.85
2022-08-03T08:04:49.271Z,60.75
2022-08-03T08:05:48.275Z,60.16
2022-08-03T08:06:48.348Z,58.84
2022-08-03T08:07:51.600Z,59.34
2022-08-03T08:08:48.246Z,58.34
2022-08-03T08:09:48.538Z,58.44
2022-08-03T08:10:58.312Z,59.53
2022-08-03T08:11:49.167Z,59.11
2022-08-03T08:12:48.127Z,58.61
2022-08-03T08:13:48.097Z,57.23
2022-08-03T08:14:48.066Z,57.92
2022-08-03T08:15:48.123Z,57.42
2022-08-03T08:16:48.067Z,57.79
2022-08-03T08:17:48.132Z,57.00
2022-08-03T08:18:48.035Z,57.40
2022-08-03T08:19:51.557Z,56.40
2022-08-03T08:20:48.909Z,55.78
2022-08-03T08:21:53.084Z,57.07
2022-08-03T08:22:52.703Z,58.65
2022-08-03T08:23:56.240Z,56.87
2022-08-03T08:24:48.859Z,57.74
2022-08-03T08:25:47.860Z,55.76
2022-08-03T08:26:47.848Z,55.06
2022-08-03T08:28:29.417Z,53.88
2022-08-03T08:28:49.051Z,54.47
2022-08-03T08:29:55.304Z,55.66
2022-08-03T08:30:48.833Z,56.85
2022-08-03T08:31:47.849Z,56.85
2022-08-03T08:32:47.844Z,55.36
2022-08-03T08:34:03.606Z,54.67
2022-08-03T08:34:48.864Z,55.43
2022-08-03T08:35:47.875Z,55.73
2022-08-03T08:36:47.856Z,53.55
2022-08-03T08:37:50.799Z,54.24
2022-08-03T08:38:47.875Z,54.64
2022-08-03T08:39:47.875Z,52.66
2022-08-03T08:40:47.915Z,54.74
2022-08-03T08:41:50.624Z,54.05
2022-08-03T08:42:58.498Z,54.64
2022-08-03T08:43:48.890Z,54.74
2022-08-03T08:44:47.896Z,54.61
2022-08-03T08:45:48.830Z,52.83
2022-08-03T08:46:47.906Z,52.64
2022-08-03T08:47:51.297Z,53.72
2022-08-03T08:48:47.820Z,54.42
2022-08-03T08:50:08.464Z,53.13
2022-08-03T08:50:54.018Z,53.13
2022-08-03T08:51:59.259Z,51.84
2022-08-03T08:52:48.833Z,52.64
2022-08-03T08:53:47.808Z,53.13
2022-08-03T08:54:47.828Z,52.44
2022-08-03T08:55:56.626Z,52.64
2022-08-03T08:56:48.808Z,52.24
2022-08-03T08:57:48.732Z,53.89
2022-08-03T08:58:47.841Z,53.80
2022-08-03T08:59:49.702Z,53.00
2022-08-03T09:00:47.786Z,52.81
2022-08-03T09:01:49.225Z,52.91
2022-08-03T09:02:47.762Z,52.88
2022-08-03T09:03:47.753Z,52.78
2022-08-03T09:04:47.851Z,51.59
2022-08-03T09:05:55.867Z,51.79
2022-08-03T09:07:10.469Z,51.89
2022-08-03T09:07:48.651Z,52.88
2022-08-03T09:08:47.653Z,52.19
2022-08-03T09:10:11.012Z,52.19
2022-08-03T09:10:48.643Z,52.09
2022-08-03T09:12:00.919Z,51.70
2022-08-03T09:12:48.565Z,51.70
2022-08-03T09:13:47.600Z,50.90
2022-08-03T09:15:07.446Z,49.91
2022-08-03T09:15:52.733Z,51.50
2022-08-03T09:16:48.603Z,51.30
2022-08-03T09:17:50.859Z,50.71
2022-08-03T09:18:47.526Z,51.07
2022-08-03T09:20:03.210Z,51.87
2022-08-03T09:20:48.563Z,49.89
2022-08-03T09:21:48.414Z,50.09
2022-08-03T09:22:47.495Z,50.29
2022-08-03T09:24:01.370Z,49.37
2022-08-03T09:25:03.153Z,50.07
2022-08-03T09:25:48.478Z,50.26
2022-08-03T09:26:47.423Z,50.66
2022-08-03T09:27:47.421Z,51.15
2022-08-03T09:28:52.677Z,49.96
2022-08-03T09:29:48.345Z,49.87
2022-08-03T09:30:47.311Z,51.64
2022-08-03T09:31:47.376Z,49.67
2022-08-03T09:32:47.268Z,51.35
2022-08-03T09:33:47.235Z,50.66
2022-08-03T09:34:47.616Z,51.54
2022-08-03T09:35:55.345Z,50.07
2022-08-03T09:36:48.235Z,48.49
2022-08-03T09:38:13.907Z,49.84
2022-08-03T09:38:48.167Z,50.43
2022-08-03T09:39:47.141Z,48.96
2022-08-03T09:40:47.109Z,47.57
2022-08-03T09:41:47.093Z,48.14
2022-08-03T09:42:47.084Z,48.14
2022-08-03T09:43:47.066Z,48.93
2022-08-03T09:44:48.000Z,48.74
2022-08-03T09:45:47.052Z,47.75
2022-08-03T09:46:50.012Z,48.63
2022-08-03T09:47:46.993Z,48.04
2022-08-03T09:48:46.974Z,48.14
2022-08-03T09:49:46.948Z,48.22
2022-08-03T09:50:58.816Z,47.23
2022-08-03T09:52:33.906Z,47.33
2022-08-03T09:52:49.780Z,47.03
2022-08-03T09:53:57.012Z,47.63
2022-08-03T09:54:47.846Z,46.74
2022-08-03T09:56:34.811Z,47.43
2022-08-03T09:56:47.795Z,47.11
2022-08-03T09:57:46.817Z,46.72
2022-08-03T09:58:46.794Z,46.12
2022-08-03T09:59:46.768Z,45.83
2022-08-03T10:00:46.783Z,45.73
2022-08-03T10:01:46.871Z,46.81
2022-08-03T10:02:46.787Z,46.10
2022-08-03T10:04:03.219Z,45.90
2022-08-03T10:04:47.779Z,45.61
2022-08-03T10:05:46.767Z,47.78
2022-08-03T10:06:46.751Z,46.69
2022-08-03T10:07:46.736Z,46.10
2022-08-03T10:08:46.744Z,47.09
2022-08-03T10:09:47.405Z,48.27
2022-08-03T10:10:46.724Z,48.66
2022-08-03T10:11:46.716Z,47.97
2022-08-03T10:12:46.716Z,47.26
2022-08-03T10:13:46.689Z,46.97
2022-08-03T10:14:46.677Z,46.77
2022-08-03T10:16:22.448Z,46.97
2022-08-03T10:16:47.672Z,46.87
2022-08-03T10:17:46.659Z,45.68
2022-08-03T10:18:46.677Z,44.01
2022-08-03T10:19:46.679Z,44.51
2022-08-03T10:20:46.650Z,43.82
2022-08-03T10:21:46.695Z,44.31
2022-08-03T10:22:46.652Z,43.82
2022-08-03T10:23:46.669Z,44.90
2022-08-03T10:24:46.651Z,45.07
2022-08-03T10:25:46.637Z,44.29
2022-08-03T10:26:49.909Z,43.89
2022-08-03T10:27:46.656Z,44.29
2022-08-03T10:28:46.656Z,44.70
2022-08-03T10:29:46.655Z,43.71
2022-08-03T10:30:46.794Z,44.51
2022-08-03T10:31:54.453Z,44.51
2022-08-03T10:32:47.643Z,44.38
2022-08-03T10:33:50.773Z,45.17
2022-08-03T10:34:47.592Z,45.49
2022-08-03T10:35:46.556Z,45.27
2022-08-03T10:36:46.557Z,46.45
2022-08-03T10:37:56.505Z,46.53
2022-08-03T10:38:47.575Z,45.05
2022-08-03T10:39:46.555Z,43.68
2022-08-03T10:40:49.607Z,44.44
2022-08-03T10:41:46.543Z,43.65
2022-08-03T10:42:46.504Z,44.15
2022-08-03T10:43:46.487Z,43.16
2022-08-03T10:44:46.496Z,45.01
2022-08-03T10:45:47.409Z,44.91
2022-08-03T10:46:46.416Z,43.14
2022-08-03T10:47:46.365Z,43.41
2022-08-03T10:48:46.338Z,42.71
2022-08-03T10:49:46.352Z,41.92
2022-08-03T10:50:46.298Z,44.57
2022-08-03T10:51:46.216Z,43.79
2022-08-03T10:52:49.143Z,43.00
2022-08-03T10:53:54.393Z,43.69
2022-08-03T10:54:47.073Z,42.21
2022-08-03T10:55:46.041Z,42.51
2022-08-03T10:56:49.790Z,42.92
2022-08-03T10:57:47.441Z,44.01
2022-08-03T10:58:53.212Z,43.00
2022-08-03T10:59:46.935Z,44.57
2022-08-03T11:00:45.935Z,42.98
2022-08-03T11:02:00.079Z,42.88
2022-08-03T11:02:46.818Z,43.35
2022-08-03T11:03:45.756Z,43.05
2022-08-03T11:04:45.716Z,41.88
2022-08-03T11:05:45.682Z,43.15
2022-08-03T11:06:45.663Z,42.10
2022-08-03T11:07:45.616Z,42.58
2022-08-03T11:08:46.607Z,43.76
2022-08-03T11:09:45.550Z,43.18
2022-08-03T11:10:45.507Z,43.39
2022-08-03T11:11:45.472Z,43.00
2022-08-03T11:12:45.446Z,43.79
2022-08-03T11:13:45.399Z,42.63
2022-08-03T11:14:45.417Z,43.22
2022-08-03T11:15:45.345Z,43.98
2022-08-03T11:16:45.315Z,43.29
2022-08-03T11:17:46.660Z,43.19
2022-08-03T11:18:46.284Z,44.87
2022-08-03T11:19:56.742Z,44.16
2022-08-03T11:20:46.300Z,43.37
2022-08-03T11:21:45.268Z,42.86
2022-08-03T11:22:45.196Z,43.15
2022-08-03T11:24:04.746Z,42.74
2022-08-03T11:24:46.128Z,42.84
2022-08-03T11:25:54.952Z,42.84
2022-08-03T11:26:46.115Z,42.62
2022-08-03T11:27:46.093Z,42.03
2022-08-03T11:28:46.090Z,41.92
2022-08-03T11:29:46.062Z,41.62
2022-08-03T11:30:46.031Z,41.72
2022-08-03T11:31:50.763Z,41.72
2022-08-03T11:32:48.652Z,41.72
2022-08-03T11:33:46.906Z,41.82
2022-08-03T11:34:45.921Z,40.94
2022-08-03T11:35:45.893Z,41.99
2022-08-03T11:36:45.934Z,41.13
2022-08-03T11:38:01.944Z,41.84
2022-08-03T11:38:46.851Z,41.76
2022-08-03T11:39:45.712Z,42.47
2022-08-03T11:40:45.734Z,42.57
2022-08-03T11:41:45.694Z,43.43
2022-08-03T11:42:46.657Z,43.04
2022-08-03T11:43:45.602Z,42.33
2022-08-03T11:44:47.450Z,42.31
2022-08-03T11:45:45.578Z,42.29
2022-08-03T11:46:45.637Z,42.29
2022-08-03T11:47:50.764Z,41.41
2022-08-03T11:48:46.627Z,42.17
2022-08-03T11:49:45.518Z,41.49
2022-08-03T11:50:45.614Z,41.88
2022-08-03T11:51:45.480Z,42.35
2022-08-03T11:52:45.469Z,41.27
2022-08-03T11:53:45.464Z,40.97
2022-08-03T11:54:45.484Z,40.31
2022-08-03T11:55:45.450Z,39.23
2022-08-03T11:56:45.516Z,39.33
2022-08-03T11:58:58.316Z,40.82
2022-08-03T11:59:02.642Z,41.11
2022-08-03T11:59:46.421Z,40.45
2022-08-03T12:00:45.363Z,39.96
2022-08-03T12:01:45.341Z,39.76
2022-08-03T12:02:45.547Z,41.02
2022-08-03T12:03:46.044Z,41.09
2022-08-03T12:04:47.372Z,40.01
2022-08-03T12:05:51.104Z,39.80
2022-08-03T12:06:47.397Z,40.08
2022-08-03T12:08:04.759Z,39.76
2022-08-03T12:08:46.170Z,40.16
2022-08-03T12:09:45.088Z,39.26
2022-08-03T12:10:45.080Z,38.55
2022-08-03T12:11:50.906Z,38.75
2022-08-03T12:12:46.703Z,38.04
2022-08-03T12:14:35.673Z,38.04
2022-08-03T12:14:50.403Z,38.63
2022-08-03T12:15:45.999Z,37.95
2022-08-03T12:16:45.032Z,37.87
2022-08-03T12:17:44.954Z,38.09
2022-08-03T12:18:44.939Z,39.08
2022-08-03T12:19:44.914Z,39.76
2022-08-03T12:20:45.124Z,39.67
2022-08-03T12:21:44.922Z,39.86
2022-08-03T12:22:45.904Z,39.16
2022-08-03T12:23:44.902Z,38.48
2022-08-03T12:24:46.822Z,39.36
2022-08-03T12:25:44.879Z,39.84
2022-08-03T12:26:44.924Z,38.89
2022-08-03T12:27:45.849Z,39.69
2022-08-03T12:28:49.501Z,40.64
2022-08-03T12:29:58.787Z,40.25
2022-08-03T12:30:46.452Z,39.45
2022-08-03T12:31:44.807Z,38.35
2022-08-03T12:32:44.796Z,38.65
2022-08-03T12:33:44.765Z,39.02
2022-08-03T12:34:47.253Z,39.70
2022-08-03T12:35:52.312Z,39.69
2022-08-03T12:36:45.686Z,38.79
2022-08-03T12:37:44.667Z,38.40
2022-08-03T12:38:44.669Z,37.50
2022-08-03T12:40:03.577Z,38.38
2022-08-03T12:40:45.648Z,37.39
2022-08-03T12:41:44.623Z,37.87
2022-08-03T12:42:44.602Z,37.68
2022-08-03T12:43:44.563Z,38.15
2022-08-03T12:44:44.670Z,37.27
2022-08-03T12:45:45.542Z,36.88
2022-08-03T12:46:48.109Z,36.98
2022-08-03T12:47:44.493Z,36.69
2022-08-03T12:48:44.466Z,36.77
2022-08-03T12:49:44.492Z,37.18
2022-08-03T12:50:44.480Z,37.16
2022-08-03T12:51:44.483Z,36.28
2022-08-03T12:52:44.466Z,36.49